Tiziano Catalano

Recruteur - Fiorentina
7 Déc 2028
Jeudi
Processus

Personnalité

Adaptabilité (11) Ambition (7) Controverse (14) Loyauté (10) Pression (10) Professionnalisme (17) Sportivité (11) Tempérament (5)

Profil

Style d'entraînement Démocratique
Diplôme Continental A
Détermination 15
Gestion des joueurs 6
Motivation 15
Discipline 12
Satisfaction professionnelle
100%
Fatigue
0%
Rôle Recruteur
Salaire 63.0K p/s
Contrat 14.03.2029

Performance

Comportement Bon
Efficacité de l'entraînement
51%
Développement des joueurs
70%
Prévention des blessures
45%
Mise en place tactique
60%

Événements récents

A participé à une réunion de recrutement maintenant
A recommandé une cible de transfert maintenant
A recommandé une cible de transfert maintenant
A participé à une réunion de recrutement maintenant
A évalué un joueur 7j
A évalué un joueur 7j
A évalué un joueur 7j
A évalué un joueur 7j

Suivi en cours

152
Joueur Club Statut Capacité Confiance Observé Dernière observation Dernier vote
Sindre Walle Egeli Udinese Actif 148 / 140 40% 15 06.12.2028 -
Antonio Raimondo Bologna Actif 130 / 134 40% 4 06.12.2028 -
Divin Mubama Manchester City Actif 133 / 138 40% 3 06.12.2028 -
Ilyas Ansah Hull City Actif 144 / 139 40% 12 05.12.2028 -
Omar Nader Brentford Actif 146 / 147 40% 5 05.12.2028 -
Mohamed Meïté Al-Hilal Actif 143 / 143 40% 6 05.12.2028 -
Babis Kostoulas Oxford United Actif 151 / 154 40% 13 03.12.2028 -
Dastan Sätpayev Sunderland Actif 140 / 149 40% 6 03.12.2028 -
Eduardo Lozano Botafogo Actif 151 / 153 40% 14 30.11.2028 -
Matías Fernández-Pardo Atalanta Actif 155 / 158 40% 6 30.11.2028 -
Alieu Njie Torino Actif 144 / 137 40% 9 30.11.2028 -
Davinchi Getafe Actif 129 / 127 40% 1 30.11.2028 -
Nejc Viher NK Maribor Actif 117 / 121 40% 1 30.11.2028 -
Aidan Borland Espanyol Actif 115 / 117 40% 1 30.11.2028 -
Stefanos Tzimas Brighton Actif 147 / 152 40% 19 28.11.2028 -
Bernardo Lima Porto Actif 119 / 132 40% 3 28.11.2028 -
Alexis Vossah Toulouse FC Actif 129 / 131 40% 1 28.11.2028 -
Vitaly Bondarev Ural Actif 116 / 119 40% 1 28.11.2028 -
Leo Castledine Middlesbrough Actif 142 / 147 40% 9 26.11.2028 -
Emersonn Ipswich Town Actif 136 / 142 40% 10 26.11.2028 -
Iker Bravo Napoli Actif 139 / 146 40% 12 25.11.2028 -
Franculino Brighton Actif 153 / 151 40% 9 25.11.2028 -
Riquelme Thompson-Jones Accrington Stanley Actif 110 / 127 40% 4 23.11.2028 -
Jayden Danns Bradford City Actif 143 / 144 40% 16 23.11.2028 -
Tommy Watson Cardiff City Actif 145 / 147 40% 11 23.11.2028 -
Cheveyo Tsawa Club Brugge Actif 133 / 131 40% 2 23.11.2028 -
Josh King Newcastle United Actif 148 / 150 40% 1 23.11.2028 -
Rodrigo Ribeiro Bayer Leverkusen Actif 137 / 143 40% 8 22.11.2028 -
Jakob Napoleon Romsaas Monaco Actif 134 / 133 40% 1 22.11.2028 -
Eli Junior Kroupi Bournemouth Actif 153 / 149 40% 8 19.11.2028 -
Damion Downs Southampton Actif 133 / 137 40% 8 19.11.2028 -
Adam Daghim RB Leipzig Actif 142 / 148 40% 3 18.11.2028 -
Mikey Moore Stockport County Actif 147 / 145 40% 7 17.11.2028 -
Mathys Tel Tottenham Actif 155 / 160 40% 14 16.11.2028 -
Samed Baždar Paris Saint-Germain Actif 135 / 146 40% 5 16.11.2028 -
Harry Gray Harrogate Town Actif 134 / 141 40% 3 16.11.2028 -
Vanja Vlahović Spezia Actif 137 / 142 40% 5 10.11.2028 -
Christos Mouzakitis Hull City Actif 142 / 153 40% 3 08.11.2028 -
Leon Grgić Werder Bremen Actif 138 / 143 40% 13 08.11.2028 -
Jofre Torrents Ajax Actif 140 / 147 40% 1 08.11.2028 -
Tobías Andrada River Plate Actif 118 / 124 40% 1 08.11.2028 -
Pablo Felipe West Ham United Actif 147 / 148 40% 5 07.11.2028 -
Yassir Zabiri Stade Rennais Actif 144 / 149 40% 5 07.11.2028 -
Trey Nyoni Rotherham United Actif 143 / 150 40% 5 01.11.2028 -
Matteo Palma Udinese Actif 134 / 148 40% 4 01.11.2028 -
José Neto Benfica Actif 126 / 129 40% 1 01.11.2028 -
Ronan Kpakio AC Milan Actif 131 / 141 40% 3 28.10.2028 -
Ibrahim Osman Norwich City Actif 142 / 147 40% 6 28.10.2028 -
Axel Tape Bayer Leverkusen Actif 134 / 145 40% 1 28.10.2028 -
Jayden Ngwashi Manchester United Actif 118 / 122 40% 1 28.10.2028 -
Tyrique George Everton Actif 132 / 140 40% 2 25.10.2028 -
Nelson Weiper Mainz 05 Actif 133 / 135 40% 1 23.10.2028 -
Miguel Figueiredo Benfica Actif 126 / 132 40% 7 20.10.2028 -
Ayyoub Bouaddi Stoke City Actif 156 / 156 40% 2 20.10.2028 -
Wilfried Gnonto Leeds United Actif 148 / 148 40% 9 14.10.2028 -
Celías Ingenthron Platense Actif 113 / 127 40% 1 13.10.2028 -
Wout Gielen Juventus Actif 113 / 112 40% 1 13.10.2028 -
Giovanni Leoni Lincoln City Actif 149 / 154 40% 4 11.10.2028 -
Felipe Obradovich Ferro Carril Oeste Actif 108 / 118 40% 3 11.10.2028 -
Andrey Ivlev Nizhniy Novgorod Actif 110 / 133 40% 4 09.10.2028 -
August Priske Sunderland Actif 140 / 146 40% 4 05.10.2028 -
Abubacarr Sedi Kinteh Al-Ahli Actif 133 / 144 40% 2 04.10.2028 -
Dor Turgeman Spartak Moscow Actif 132 / 150 40% 1 02.10.2028 -
Jan Bürger Northampton Town Actif 126 / 120 40% 6 26.09.2028 -
Honest Ahanor Atalanta Actif 139 / 139 40% 1 26.09.2028 -
Salvador Blopá Wolverhampton Actif 125 / 125 40% 1 26.09.2028 -
Jack Fletcher Manchester United Actif 116 / 126 40% 1 19.09.2028 -
Chris Rigg West Ham United Actif 142 / 153 40% 1 19.09.2028 -
Matai Akinmboni Bournemouth Actif 116 / 118 40% 1 15.09.2028 -
Felipe Pujol Vélez Actif 112 / 121 40% 1 15.09.2028 -
Louis Page Leicester City Actif 130 / 137 40% 1 15.09.2028 -
Tyler Fletcher Rotherham United Actif 119 / 128 40% 1 14.09.2028 -
Branimir Mlačić Udinese Actif 127 / 131 40% 1 14.09.2028 -
Vadim Rakov CSKA Moscow Actif 126 / 122 40% 2 10.09.2028 -
Mateo Joseph Leeds United Actif 142 / 144 40% 9 09.09.2028 -
Daniel Banjaqui Benfica Actif 130 / 135 40% 3 08.09.2028 -
Lamine Ballo Inter Actif 116 / 128 40% 1 08.09.2028 -
Mateus Mané Burnley Actif 148 / 154 40% 7 06.09.2028 -
Alieu Njie Torino Perdu 138 / 139 40% 5 21.08.2028 -
Ebenezer Akinsanmiro Inter Rapport prêt 136 / 140 83% 1 21.08.2028 -
Nico Paz Arsenal Actif 169 / 172 40% 1 07.08.2028 -
Antonio Raimondo Bologna Perdu 132 / 129 40% 1 07.08.2028 -
Luca Moro Padova Rapport prêt 124 / 126 83% 1 10.07.2028 -
Luka Vušković Tottenham Actif 149 / 149 40% 3 03.07.2028 -
Tobías Ramírez River Plate Actif 124 / 126 40% 3 03.07.2028 -
Fabio Rispoli Como Actif 116 / 132 40% 5 28.06.2028 -
Josh Stephenson Brentford Actif 118 / 125 40% 1 26.06.2028 -
James Rodríguez Pescara Rapport prêt 131 / 136 79% 1 19.06.2028 -
Andrea Cogoni Cosenza Actif 115 / 121 40% 4 06.06.2028 -
Nazareno Roselli Defensa y Justicia Actif 115 / 123 40% 2 05.06.2028 -
Josh Nichols Oldham Athletic Actif 121 / 133 40% 6 04.06.2028 -
Domenico Berardi Sassuolo Rapport prêt 142 / 133 79% 1 02.06.2028 -
Veljko Milosavljević Bournemouth Actif 146 / 151 40% 1 02.06.2028 -
Bart Verbruggen Liverpool Actif 164 / 167 40% 2 01.06.2028 -
Stefano Di Mario Virtus Entella Perdu 121 / 122 79% 1 01.06.2028 -
Mark Travers Leicester City Actif 143 / 140 40% 1 01.06.2028 -
Lucas Chevalier AC Milan Actif 165 / 159 40% 1 01.06.2028 -
Federico Ravaglia Bologna Actif 141 / 145 40% 4 31.05.2028 -
Justin Bijlow Atalanta Actif 145 / 144 40% 1 31.05.2028 -
Endrick Boca Juniors Actif 153 / 155 40% 1 31.05.2028 -
Augusto Bando Ascoli Actif 107 / 110 40% 1 31.05.2028 -
Ibrahim Fullah Charlton Athletic Actif 119 / 123 40% 1 31.05.2028 -
William Osula Wrexham Actif 138 / 142 40% 4 29.05.2028 -
Lorenzo Venturino Juventus Actif 140 / 143 40% 1 29.05.2028 -
Richard Koné Queens Park Rangers Actif 133 / 135 40% 3 28.05.2028 -
Mihailo Ivanović Aston Villa Actif 134 / 135 40% 4 20.05.2028 -
Eguinaldo Shakhtar Actif 132 / 137 40% 2 16.05.2028 -
Mohamed-Ali Cho Hull City Actif 140 / 145 40% 4 13.05.2028 -
Vittorio Magni Cesena Actif 105 / 113 40% 2 12.05.2028 -
Nilson Angulo Sunderland Actif 129 / 139 40% 6 05.05.2028 -
Agustín Medina Lanús Actif 111 / 127 40% 2 05.05.2028 -
Martim Cunha Porto Actif 107 / 112 40% 2 05.05.2028 -
Petar Ratkov Lazio Actif 140 / 130 40% 2 24.04.2028 -
Jonathan Rowe Bologna Actif 135 / 141 40% 2 09.04.2028 -
Bade Aluko Leicester City Actif 124 / 120 40% 2 08.04.2028 -
Ayden Heaven Portsmouth Actif 143 / 150 40% 1 02.04.2028 -
Samu Aghehowa Udinese Actif 154 / 158 40% 1 24.03.2028 -
Josh Acheampong Everton Actif 140 / 139 40% 2 13.03.2028 -
Othniël Raterink Cagliari Actif 114 / 128 40% 2 11.03.2028 -
Olivier Mambwa Young Boys Actif 111 / 126 40% 1 06.03.2028 -
Borja Sainz Udinese Actif 149 / 152 76% 1 24.01.2028 -
Jeff Ekhator Juventus Actif 128 / 139 40% 6 22.06.2027 Observer
Massimo Zilli Spezia Actif 113 / 118 40% 6 31.05.2027 -
Jaygo van Ommeren Utrecht Actif 106 / 120 40% 1 29.05.2027 -
Riley Owen Stevenage Actif 97 / 101 40% 1 28.05.2027 -
Ezra Mayers West Ham United Actif 118 / 122 40% 1 27.05.2027 -
Sascha Britschgi AC Milan Actif 121 / 122 40% 1 26.05.2027 -
Eliás Montiel Borussia Dortmund Actif 130 / 127 40% 1 25.05.2027 -
Stiven Shpendi Empoli Actif 119 / 113 40% 3 23.05.2027 -
Giorgos Koutsias Famalicao Actif 122 / 115 40% 4 18.05.2027 -
Younes Ebnoutalib Eintracht Frankfurt Actif 134 / 134 40% 2 18.05.2027 -
Kiani Inge Groningen Actif 101 / 109 40% 1 10.05.2027 -
Gady Beyuku Blackburn Rovers Actif 118 / 116 40% 1 09.05.2027 -
Erick Dolly Black Aces Actif 107 / 126 40% 3 07.05.2027 -
Matija Frigan Parma Actif 121 / 118 40% 3 06.05.2027 -
David Romero Parma Actif 129 / 124 40% 3 05.05.2027 -
Manfred Ugalde Spartak Moscow Actif 129 / 118 40% 4 02.05.2027 -
Maksim Samorodov Akhmat Grozny Actif 128 / 124 40% 1 23.04.2027 -
Filippo Distefano Empoli Actif 123 / 124 40% 1 21.04.2027 -
Tio Cipot NK Maribor Actif 123 / 127 40% 2 10.04.2027 -
Thom van Bergen Groningen Actif 122 / 119 40% 1 08.04.2027 -
José Martínes CSKA 1948 Actif 115 / 118 40% 2 06.04.2027 -
Mile Svilar AS Roma Actif 155 / 168 40% 6 29.03.2027 -
Berna CSKA 1948 Actif 120 / 126 40% 2 17.03.2027 -
Younes El Bahraoui Al-Taawoun Actif 102 / 109 40% 1 06.03.2027 -
Ádin Molnár MTK Budapest Actif 114 / 98 40% 1 02.03.2027 -
Raoul Bellanova Atalanta Actif 145 / 140 40% 1 31.12.2026 -
Jean-Daniel Akpa Akpro Hellas Verona Actif 127 / 130 69% 1 24.08.2026 Approuver
Marco Sportiello Atalanta Actif 124 / 124 69% 1 10.08.2026 Approuver
Florian Wirtz Liverpool Actif 172 / 164 40% 1 01.08.2026 -
Martín Zubimendi Arsenal Actif 161 / 172 40% 1 01.08.2026 -
Matías Soulé AS Roma Actif 160 / 159 40% 1 01.08.2026 -